Time;durP1;ratioP1;P1;durP2;ratioP2;P2;SDS_P1;SDS_P2;PMS_P1;PMS_P2;Temp;Humidity;BMP_temperature;BMP_pressure;BME280_temperature;BME280_humidity;BME280_pressure;Samples;Min_cycle;Max_cycle;Signal;HPM_P1;HPM_P2
2021/12/12 00:00:54;;;;;;;1999.90;999.90;;;3.90;99.90;;;;;;4948806;28;20203;-73
2021/12/12 00:03:47;;;;;;;1999.90;999.90;;;3.90;99.90;;;;;;4948692;28;20198;-73
2021/12/12 00:06:22;;;;;;;1999.90;999.90;;;3.90;99.90;;;;;;4949038;28;20191;-73
2021/12/12 00:08:59;;;;;;;1999.90;999.90;;;3.90;99.90;;;;;;4949017;29;20198;-73
2021/12/12 00:11:30;;;;;;;1999.90;999.90;;;3.90;99.90;;;;;;4948045;28;20199;-73
2021/12/12 00:14:01;;;;;;;1999.90;999.90;;;4.00;99.90;;;;;;4948742;28;20290;-72
2021/12/12 00:16:28;;;;;;;1999.90;999.90;;;4.00;99.90;;;;;;4948613;28;20970;-72
2021/12/12 00:18:55;;;;;;;1999.90;999.90;;;4.00;99.90;;;;;;4948566;28;20194;-73
2021/12/12 00:21:23;;;;;;;1999.90;999.90;;;4.10;99.90;;;;;;4948987;28;20909;-73
2021/12/12 00:23:49;;;;;;;1999.90;999.90;;;4.10;99.90;;;;;;4948488;28;20407;-73
2021/12/12 00:26:14;;;;;;;1999.90;999.90;;;4.20;99.90;;;;;;4948343;28;20240;-73
2021/12/12 00:28:40;;;;;;;1999.90;999.90;;;4.30;99.90;;;;;;4948588;28;20423;-72
2021/12/12 00:31:10;;;;;;;1999.90;999.90;;;4.30;99.90;;;;;;4948320;28;20202;-73
2021/12/12 00:33:42;;;;;;;1999.90;999.90;;;4.30;99.90;;;;;;4948584;28;20836;-74
2021/12/12 00:36:08;;;;;;;1999.90;999.90;;;4.30;99.90;;;;;;4948655;28;20276;-73
2021/12/12 00:38:35;;;;;;;1999.90;999.90;;;4.30;99.90;;;;;;4948547;28;20249;-73
2021/12/12 00:41:05;;;;;;;1999.90;999.90;;;4.30;99.90;;;;;;4947796;28;20207;-72
2021/12/12 00:43:40;;;;;;;1999.90;999.90;;;4.30;99.90;;;;;;4948425;28;20425;-73
2021/12/12 00:46:09;;;;;;;1999.90;999.90;;;4.30;99.90;;;;;;4948261;28;20425;-73
2021/12/12 00:48:36;;;;;;;1999.90;999.90;;;4.30;99.90;;;;;;4948310;29;20572;-73
2021/12/12 00:51:10;;;;;;;1999.90;999.90;;;4.30;99.90;;;;;;4947822;28;20195;-73
2021/12/12 00:53:37;;;;;;;1999.90;999.90;;;4.30;99.90;;;;;;4947891;28;20958;-73
2021/12/12 00:56:04;;;;;;;1999.90;999.90;;;4.20;99.90;;;;;;4948021;29;21128;-73
2021/12/12 00:58:30;;;;;;;1999.90;999.90;;;4.20;99.90;;;;;;4947912;28;20407;-73
2021/12/12 01:01:02;;;;;;;1999.90;999.90;;;4.20;99.90;;;;;;4947583;28;20202;-72
2021/12/12 01:03:38;;;;;;;1999.90;999.90;;;4.20;99.90;;;;;;4947869;28;20186;-73
2021/12/12 01:06:07;;;;;;;1999.90;999.90;;;4.30;99.90;;;;;;4947503;28;20183;-73
2021/12/12 01:08:33;;;;;;;1999.90;999.90;;;4.30;99.90;;;;;;4947939;28;20431;-73
2021/12/12 01:11:13;;;;;;;1999.90;999.90;;;4.30;99.90;;;;;;4947473;28;20957;-73
2021/12/12 01:13:40;;;;;;;1999.90;999.90;;;4.20;99.90;;;;;;4947422;28;20461;-73
2021/12/12 01:16:12;;;;;;;1999.90;999.90;;;4.30;99.90;;;;;;4946973;28;20568;-73
2021/12/12 01:18:43;;;;;;;1999.90;999.90;;;4.30;99.90;;;;;;4947478;28;20446;-73
2021/12/12 01:21:14;;;;;;;1999.90;999.90;;;4.40;99.90;;;;;;4947937;29;20702;-73
2021/12/12 01:24:11;;;;;;;1999.90;999.90;;;4.30;99.90;;;;;;4947277;28;20227;-73
2021/12/12 01:26:38;;;;;;;1999.90;999.90;;;4.40;99.90;;;;;;4962199;28;20561;-74
2021/12/12 01:29:05;;;;;;;1999.90;999.90;;;4.40;99.90;;;;;;4947356;28;20786;-74
2021/12/12 01:31:36;;;;;;;1999.90;999.90;;;4.40;99.90;;;;;;4947482;28;20207;-74
2021/12/12 01:34:11;;;;;;;1999.90;999.90;;;4.40;99.90;;;;;;4946924;28;20183;-74
2021/12/12 01:37:09;;;;;;;1999.90;999.90;;;4.40;99.90;;;;;;4947112;28;20415;-74
2021/12/12 01:39:38;;;;;;;1999.90;999.90;;;4.40;99.90;;;;;;4947139;28;20734;-74
2021/12/12 01:42:09;;;;;;;1999.90;999.90;;;4.40;99.90;;;;;;4947536;28;20222;-74
2021/12/12 01:44:46;;;;;;;1999.90;999.90;;;4.40;99.90;;;;;;4947161;28;20877;-74
2021/12/12 01:47:31;;;;;;;1999.90;999.90;;;4.40;99.90;;;;;;4946917;28;20415;-74
2021/12/12 01:49:59;;;;;;;1999.90;999.90;;;4.40;99.90;;;;;;4947407;28;20575;-74
2021/12/12 01:52:28;;;;;;;1999.90;999.90;;;4.50;99.90;;;;;;4947016;28;20458;-74
2021/12/12 01:54:58;;;;;;;1999.90;999.90;;;4.50;99.90;;;;;;4946615;28;20797;-73
2021/12/12 01:57:29;;;;;;;1999.90;999.90;;;4.50;99.90;;;;;;4946886;28;20924;-73
2021/12/12 01:59:57;;;;;;;1999.90;999.90;;;4.50;99.90;;;;;;4947436;28;20433;-74
2021/12/12 02:02:30;;;;;;;1999.90;999.90;;;4.50;99.90;;;;;;4946836;28;20418;-73
2021/12/12 02:05:04;;;;;;;1999.90;999.90;;;4.50;99.90;;;;;;4946526;28;20187;-73
2021/12/12 02:07:34;;;;;;;1999.90;999.90;;;4.40;99.90;;;;;;4946521;28;20659;-73
2021/12/12 02:10:07;;;;;;;1999.90;999.90;;;4.50;99.90;;;;;;4946858;28;20507;-74
2021/12/12 02:12:33;;;;;;;1999.90;999.90;;;4.40;99.90;;;;;;4947022;28;20555;-74
2021/12/12 02:14:59;;;;;;;1999.90;999.90;;;4.50;99.90;;;;;;4946379;28;20561;-74
2021/12/12 02:17:33;;;;;;;1999.90;999.90;;;4.50;99.90;;;;;;4946422;28;20552;-74
2021/12/12 02:20:07;;;;;;;1999.90;999.90;;;4.50;99.90;;;;;;4946727;28;20442;-75
2021/12/12 02:36:16;;;;;;;1999.90;999.90;;;4.60;99.90;;;;;;4948909;29;20421;-74
2021/12/12 02:38:42;;;;;;;1999.90;999.90;;;4.60;99.90;;;;;;4950388;28;20427;-74
2021/12/12 02:41:13;;;;;;;1999.90;999.90;;;4.70;99.90;;;;;;4949674;28;20522;-75
2021/12/12 02:43:47;;;;;;;1999.90;999.90;;;4.70;99.90;;;;;;4949618;28;20481;-75
2021/12/12 02:46:17;;;;;;;1999.90;999.90;;;4.80;99.90;;;;;;4949451;29;20429;-74
2021/12/12 02:48:48;;;;;;;1999.90;999.90;;;4.80;99.90;;;;;;4950012;28;20947;-72
2021/12/12 02:51:17;;;;;;;1999.90;999.90;;;4.80;99.90;;;;;;4950499;28;20983;-74
2021/12/12 02:53:52;;;;;;;1999.90;999.90;;;4.80;99.90;;;;;;4949387;28;20461;-74
2021/12/12 02:56:37;;;;;;;1999.90;999.90;;;4.80;99.90;;;;;;4949341;28;20422;-74
2021/12/12 02:59:06;;;;;;;1999.90;999.90;;;4.80;99.90;;;;;;4949818;28;20467;-74
2021/12/12 03:01:46;;;;;;;1999.90;999.90;;;4.80;99.90;;;;;;4949531;28;20426;-74
2021/12/12 03:04:12;;;;;;;1999.90;999.90;;;4.90;99.90;;;;;;4949235;28;20418;-74
2021/12/12 03:06:40;;;;;;;1999.90;999.90;;;4.90;99.90;;;;;;4949502;28;20191;-74
2021/12/12 03:09:19;;;;;;;1999.90;999.90;;;4.90;99.90;;;;;;4949606;28;20415;-74
2021/12/12 03:11:49;;;;;;;1999.90;999.90;;;4.90;99.90;;;;;;4949840;28;20430;-73
2021/12/12 03:14:15;;;;;;;1999.90;999.90;;;5.00;99.90;;;;;;4949467;28;20501;-74
2021/12/12 03:16:41;;;;;;;1999.90;999.90;;;5.00;99.90;;;;;;4949011;28;20316;-74
2021/12/12 03:19:07;;;;;;;1999.90;999.90;;;5.00;99.90;;;;;;4949320;28;20457;-74
2021/12/12 03:21:42;;;;;;;1999.90;999.90;;;5.10;99.90;;;;;;4949419;28;20422;-74
2021/12/12 03:24:25;;;;;;;1999.90;999.90;;;5.20;99.90;;;;;;4948979;28;20265;-74
2021/12/12 03:26:55;;;;;;;1999.90;999.90;;;5.20;99.90;;;;;;4949728;28;20856;-74
2021/12/12 03:29:21;;;;;;;1999.90;999.90;;;5.30;99.90;;;;;;4949008;28;20430;-74
2021/12/12 03:31:52;;;;;;;1999.90;999.90;;;5.40;99.90;;;;;;4948914;28;20462;-74
2021/12/12 03:34:21;;;;;;;1999.90;999.90;;;5.40;99.90;;;;;;4948940;28;20427;-72
2021/12/12 03:36:48;;;;;;;1999.90;999.90;;;5.50;99.90;;;;;;4949527;28;20414;-74
2021/12/12 03:39:19;;;;;;;1999.90;999.90;;;5.50;99.90;;;;;;4948943;28;20813;-74
2021/12/12 03:41:45;;;;;;;1999.90;999.90;;;5.60;99.90;;;;;;4948781;28;20684;-74
2021/12/12 03:44:14;;;;;;;1999.90;999.90;;;5.60;99.90;;;;;;4949109;28;20407;-73
2021/12/12 03:46:41;;;;;;;1999.90;999.90;;;5.60;99.90;;;;;;4948620;28;20422;-74
2021/12/12 03:49:07;;;;;;;1999.90;999.90;;;5.60;99.90;;;;;;4948580;28;20481;-74
2021/12/12 03:51:35;;;;;;;1999.90;999.90;;;5.60;99.90;;;;;;4949177;28;20955;-74
2021/12/12 03:54:02;;;;;;;1999.90;999.90;;;5.60;99.90;;;;;;4948660;28;20462;-74
2021/12/12 03:56:28;;;;;;;1999.90;999.90;;;5.60;99.90;;;;;;4948684;28;20414;-74
2021/12/12 03:58:55;;;;;;;1999.90;999.90;;;5.60;99.90;;;;;;4949085;28;20786;-73
2021/12/12 04:01:24;;;;;;;1999.90;999.90;;;5.60;99.90;;;;;;4948493;28;20227;-74
2021/12/12 04:03:54;;;;;;;1999.90;999.90;;;5.50;99.90;;;;;;4948597;28;20415;-74
2021/12/12 04:06:23;;;;;;;1999.90;999.90;;;5.60;99.90;;;;;;4948282;29;20423;-74
2021/12/12 04:08:51;;;;;;;1999.90;999.90;;;5.60;99.90;;;;;;4948923;28;20429;-74
2021/12/12 04:11:25;;;;;;;1999.90;999.90;;;5.60;99.90;;;;;;4948370;28;20438;-74
2021/12/12 04:13:54;;;;;;;1999.90;999.90;;;5.50;99.90;;;;;;4948354;28;20453;-74
2021/12/12 04:16:21;;;;;;;1999.90;999.90;;;5.60;99.90;;;;;;4947988;28;20825;-74
2021/12/12 04:18:46;;;;;;;1999.90;999.90;;;5.60;99.90;;;;;;4948726;28;20446;-74
2021/12/12 04:21:13;;;;;;;1999.90;999.90;;;5.60;99.90;;;;;;4948172;28;20889;-74
2021/12/12 04:23:40;;;;;;;1999.90;999.90;;;5.60;99.90;;;;;;4948261;28;20232;-74
2021/12/12 04:26:16;;;;;;;1999.90;999.90;;;5.60;99.90;;;;;;4948570;29;21091;-74
2021/12/12 04:28:42;;;;;;;1999.90;999.90;;;5.60;99.90;;;;;;4948592;28;20443;-73
2021/12/12 04:31:08;;;;;;;1999.90;999.90;;;5.60;99.90;;;;;;4948160;28;20546;-73
2021/12/12 04:33:34;;;;;;;1999.90;999.90;;;5.60;99.90;;;;;;4948115;28;20833;-73
2021/12/12 04:36:00;;;;;;;1999.90;999.90;;;5.60;99.90;;;;;;4948350;28;20419;-74
2021/12/12 04:38:25;;;;;;;1999.90;999.90;;;5.60;99.90;;;;;;4947767;28;20414;-73
2021/12/12 04:40:51;;;;;;;1999.90;999.90;;;5.70;99.90;;;;;;4948095;28;20190;-73
2021/12/12 04:43:17;;;;;;;1999.90;999.90;;;5.70;99.90;;;;;;4948334;29;20184;-74
2021/12/12 04:46:09;;;;;;;1999.90;999.90;;;5.70;99.90;;;;;;4947592;28;20225;-74
2021/12/12 04:51:47;;;;;;;1999.90;999.90;;;5.70;99.90;;;;;;4948110;29;20438;-73
2021/12/12 04:54:27;;;;;;;1999.90;999.90;;;5.70;99.90;;;;;;4947828;28;20437;-73
2021/12/12 04:56:55;;;;;;;1999.90;999.90;;;5.70;99.90;;;;;;4948387;28;20444;-72
2021/12/12 04:59:42;;;;;;;1999.90;999.90;;;5.70;99.90;;;;;;4947427;28;20403;-73
2021/12/12 05:02:15;;;;;;;1999.90;999.90;;;5.70;99.90;;;;;;4948433;28;20464;-73
2021/12/12 05:04:49;;;;;;;1999.90;999.90;;;5.70;99.90;;;;;;4947554;28;20218;-73
2021/12/12 05:07:20;;;;;;;1999.90;999.90;;;5.70;99.90;;;;;;4947687;28;20414;-73
2021/12/12 05:10:00;;;;;;;1999.90;999.90;;;5.70;99.90;;;;;;4947935;28;20962;-73
2021/12/12 05:12:31;;;;;;;1999.90;999.90;;;5.70;99.90;;;;;;4947960;28;20497;-72
2021/12/12 05:15:01;;;;;;;1999.90;999.90;;;5.60;99.90;;;;;;4947741;28;20202;-73
2021/12/12 05:17:38;;;;;;;1999.90;999.90;;;5.60;99.90;;;;;;4948227;28;20457;-73
2021/12/12 05:20:13;;;;;;;1999.90;999.90;;;5.60;99.90;;;;;;4948380;28;20853;-74
2021/12/12 05:22:45;;;;;;;1999.90;999.90;;;5.60;99.90;;;;;;4948212;29;20422;-74
2021/12/12 05:25:15;;;;;;;1999.90;999.90;;;5.50;99.90;;;;;;4947773;28;20422;-73
2021/12/12 05:27:42;;;;;;;1999.90;999.90;;;5.50;99.90;;;;;;4947807;28;20418;-73
2021/12/12 05:30:16;;;;;;;1999.90;999.90;;;5.60;99.90;;;;;;4947812;28;20191;-74
2021/12/12 05:32:43;;;;;;;1999.90;999.90;;;5.60;99.90;;;;;;4947871;29;20205;-74
2021/12/12 05:35:11;;;;;;;1999.90;999.90;;;5.60;99.90;;;;;;4947770;28;20418;-73
2021/12/12 05:37:38;;;;;;;1999.90;999.90;;;5.60;99.90;;;;;;4947197;28;20450;-73
2021/12/12 05:40:07;;;;;;;1999.90;999.90;;;5.50;99.90;;;;;;4947971;28;20807;-73
2021/12/12 05:42:34;;;;;;;1999.90;999.90;;;5.60;99.90;;;;;;4948109;28;20430;-73
2021/12/12 05:45:00;;;;;;;1999.90;999.90;;;5.60;99.90;;;;;;4947276;28;21150;-73
2021/12/12 05:47:27;;;;;;;1999.90;999.90;;;5.60;99.90;;;;;;4947290;28;20465;-73
2021/12/12 05:49:53;;;;;;;1999.90;999.90;;;5.60;99.90;;;;;;4948008;29;20427;-72
2021/12/12 05:52:21;;;;;;;1999.90;999.90;;;5.60;99.90;;;;;;4947264;28;20466;-73
2021/12/12 05:54:50;;;;;;;1999.90;999.90;;;5.60;99.90;;;;;;4946925;28;20244;-73
2021/12/12 05:57:23;;;;;;;1999.90;999.90;;;5.70;99.90;;;;;;4947459;28;20752;-74
2021/12/12 05:59:51;;;;;;;1999.90;999.90;;;5.70;99.90;;;;;;4947434;29;20411;-74
2021/12/12 06:02:17;;;;;;;1999.90;999.90;;;5.60;99.90;;;;;;4946973;28;20433;-74
2021/12/12 06:04:43;;;;;;;1999.90;999.90;;;5.70;99.90;;;;;;4946708;28;20240;-73
2021/12/12 06:07:19;;;;;;;1999.90;999.90;;;5.80;99.90;;;;;;4947255;28;20423;-74
2021/12/12 06:09:46;;;;;;;1999.90;999.90;;;5.90;99.90;;;;;;4947662;28;21939;-74
2021/12/12 06:12:13;;;;;;;1999.90;999.90;;;5.90;99.90;;;;;;4950274;28;20469;-74
2021/12/12 06:14:40;;;;;;;1999.90;999.90;;;5.90;99.90;;;;;;4949929;28;20534;-74
2021/12/12 06:17:12;;;;;;;1999.90;999.90;;;5.90;99.90;;;;;;4950293;28;20498;-74
2021/12/12 06:19:38;;;;;;;1999.90;999.90;;;5.90;99.90;;;;;;4949909;28;20414;-74
2021/12/12 06:22:05;;;;;;;1999.90;999.90;;;5.90;99.90;;;;;;4950195;28;20791;-73
2021/12/12 06:24:32;;;;;;;1999.90;999.90;;;5.90;99.90;;;;;;4950234;29;20472;-74
2021/12/12 06:27:05;;;;;;;1999.90;999.90;;;5.80;99.90;;;;;;4950147;28;20453;-74
2021/12/12 06:29:31;;;;;;;1999.90;999.90;;;5.90;99.90;;;;;;4949945;28;20431;-74
2021/12/12 06:31:57;;;;;;;1999.90;999.90;;;5.90;99.90;;;;;;4950003;28;20521;-74
2021/12/12 06:34:23;;;;;;;1999.90;999.90;;;5.90;99.90;;;;;;4950062;28;20527;-74
2021/12/12 06:36:50;;;;;;;1999.90;999.90;;;5.90;99.90;;;;;;4949825;28;20433;-73
2021/12/12 06:39:16;;;;;;;1999.90;999.90;;;5.90;99.90;;;;;;4949799;28;20543;-74
2021/12/12 06:41:43;;;;;;;1999.90;999.90;;;6.00;99.90;;;;;;4950158;28;20483;-74
2021/12/12 06:44:10;;;;;;;1999.90;999.90;;;6.00;99.90;;;;;;4949565;28;20414;-74
2021/12/12 06:46:40;;;;;;;1999.90;999.90;;;6.00;99.90;;;;;;4949899;28;20775;-73
2021/12/12 06:49:07;;;;;;;1999.90;999.90;;;6.00;99.90;;;;;;4949945;28;21037;-74
2021/12/12 06:51:38;;;;;;;1999.90;999.90;;;6.00;99.90;;;;;;4949607;28;20971;-74
2021/12/12 06:54:05;;;;;;;1999.90;999.90;;;6.10;99.90;;;;;;4949337;28;20450;-74
2021/12/12 06:56:31;;;;;;;1999.90;999.90;;;6.10;99.90;;;;;;4950055;28;20414;-74
2021/12/12 06:58:57;;;;;;;1999.90;999.90;;;6.10;99.90;;;;;;4949682;29;20429;-74
2021/12/12 07:01:32;;;;;;;1999.90;999.90;;;6.20;99.90;;;;;;4949573;28;20808;-74
2021/12/12 07:03:58;;;;;;;1999.90;999.90;;;6.20;99.90;;;;;;4949430;29;20429;-73
2021/12/12 07:06:29;;;;;;;1999.90;999.90;;;6.20;99.90;;;;;;4949799;28;20446;-74
2021/12/12 07:08:58;;;;;;;1999.90;999.90;;;6.20;99.90;;;;;;4949591;28;20418;-73
2021/12/12 07:11:25;;;;;;;1999.90;999.90;;;6.30;99.90;;;;;;4949345;28;20434;-73
2021/12/12 07:13:51;;;;;;;1999.90;999.90;;;6.30;99.90;;;;;;4949537;28;20462;-73
2021/12/12 07:16:20;;;;;;;1999.90;999.90;;;6.40;99.90;;;;;;4949548;28;20481;-73
2021/12/12 07:18:47;;;;;;;1999.90;999.90;;;6.40;99.90;;;;;;4949074;28;20522;-73
2021/12/12 07:21:15;;;;;;;1999.90;999.90;;;6.40;99.90;;;;;;4948623;28;20431;-73
2021/12/12 07:23:43;;;;;;;1999.90;999.90;;;6.40;99.90;;;;;;4949835;28;20441;-73
2021/12/12 07:26:11;;;;;;;1999.90;999.90;;;6.40;99.90;;;;;;4948946;28;20426;-73
2021/12/12 07:28:38;;;;;;;1999.90;999.90;;;6.50;99.90;;;;;;4949026;28;20418;-73
2021/12/12 07:31:07;;;;;;;1999.90;999.90;;;6.60;99.90;;;;;;4949554;28;20431;-73
2021/12/12 07:33:35;;;;;;;1999.90;999.90;;;6.60;99.90;;;;;;4949365;28;20474;-73
2021/12/12 07:36:03;;;;;;;1999.90;999.90;;;6.70;99.90;;;;;;4948679;28;20420;-73
2021/12/12 07:38:30;;;;;;;1999.90;999.90;;;6.60;99.90;;;;;;4949141;28;20472;-74
2021/12/12 07:40:57;;;;;;;1999.90;999.90;;;6.50;99.90;;;;;;4949478;28;20426;-73
2021/12/12 07:43:23;;;;;;;1999.90;999.90;;;6.50;99.90;;;;;;4948954;28;20445;-73
2021/12/12 07:45:50;;;;;;;1999.90;999.90;;;6.60;99.90;;;;;;4948653;28;20476;-73
2021/12/12 07:48:16;;;;;;;1999.90;999.90;;;6.60;99.90;;;;;;4949085;28;20430;-73
2021/12/12 07:50:44;;;;;;;1999.90;999.90;;;6.70;99.90;;;;;;4948752;28;20978;-73
2021/12/12 07:53:11;;;;;;;1999.90;999.90;;;6.60;99.90;;;;;;4948876;28;20465;-73
2021/12/12 07:55:37;;;;;;;1999.90;999.90;;;6.50;99.90;;;;;;4949020;28;20419;-73
2021/12/12 07:58:09;;;;;;;1999.90;999.90;;;6.50;99.90;;;;;;4948637;28;20779;-73
2021/12/12 08:00:36;;;;;;;1999.90;999.90;;;6.60;99.90;;;;;;4948601;28;20430;-73
2021/12/12 08:03:03;;;;;;;1999.90;999.90;;;6.60;99.90;;;;;;4949156;28;20411;-73
2021/12/12 08:05:31;;;;;;;1999.90;999.90;;;6.70;99.90;;;;;;4948703;28;20496;-73
2021/12/12 08:08:00;;;;;;;1999.90;999.90;;;6.70;99.90;;;;;;4948648;28;20952;-73
2021/12/12 08:10:26;;;;;;;1999.90;999.90;;;6.80;99.90;;;;;;4948926;28;20478;-73
2021/12/12 08:12:52;;;;;;;1999.90;999.90;;;6.70;99.90;;;;;;4949155;28;20550;-73
2021/12/12 08:15:18;;;;;;;1999.90;999.90;;;6.80;99.90;;;;;;4948183;28;21016;-73
2021/12/12 08:17:45;;;;;;;1999.90;999.90;;;6.80;99.90;;;;;;4949235;28;20217;-73
2021/12/12 08:20:13;;;;;;;1999.90;999.90;;;6.80;99.90;;;;;;4949111;28;20435;-73
2021/12/12 08:22:39;;;;;;;1999.90;999.90;;;6.90;99.90;;;;;;4948674;28;20457;-73
2021/12/12 08:25:08;;;;;;;1999.90;999.90;;;6.80;99.90;;;;;;4948831;28;20427;-73
2021/12/12 08:27:33;;;;;;;1999.90;999.90;;;6.90;99.90;;;;;;4948837;28;20423;-73
2021/12/12 08:29:59;;;;;;;1999.90;999.90;;;6.90;99.90;;;;;;4948422;28;20814;-73
2021/12/12 08:32:26;;;;;;;1999.90;999.90;;;7.00;99.90;;;;;;4947873;28;20199;-74
2021/12/12 08:34:53;;;;;;;1999.90;999.90;;;7.00;99.90;;;;;;4948759;28;20415;-73
2021/12/12 08:37:18;;;;;;;1999.90;999.90;;;7.00;99.90;;;;;;4948485;28;20422;-73
2021/12/12 08:39:46;;;;;;;1999.90;999.90;;;7.10;99.90;;;;;;4948626;28;20430;-73
2021/12/12 08:42:13;;;;;;;1999.90;999.90;;;7.10;99.90;;;;;;4948634;28;20590;-73
2021/12/12 08:44:40;;;;;;;1999.90;999.90;;;7.20;99.90;;;;;;4947713;28;20430;-73
2021/12/12 08:47:09;;;;;;;1999.90;999.90;;;7.20;99.90;;;;;;4948233;28;20508;-73
2021/12/12 08:49:40;;;;;;;1999.90;999.90;;;7.20;99.90;;;;;;4948618;28;20426;-73
2021/12/12 08:52:12;;;;;;;1999.90;999.90;;;7.20;99.90;;;;;;4947858;28;21003;-73
2021/12/12 08:54:40;;;;;;;1999.90;999.90;;;7.20;99.90;;;;;;4947466;28;20423;-74
2021/12/12 08:57:20;;;;;;;1999.90;999.90;;;7.30;99.90;;;;;;4947500;28;20414;-73
2021/12/12 08:59:48;;;;;;;1999.90;999.90;;;7.40;99.90;;;;;;4947758;28;20452;-73
2021/12/12 09:02:17;;;;;;;1999.90;999.90;;;7.50;99.90;;;;;;4948196;28;20438;-73
2021/12/12 09:04:51;;;;;;;1999.90;999.90;;;7.60;99.90;;;;;;4947807;28;20418;-73
2021/12/12 09:07:32;;;;;;;1999.90;999.90;;;7.80;99.90;;;;;;4947535;28;20928;-73
2021/12/12 09:10:12;;;;;;;1999.90;999.90;;;7.90;99.90;;;;;;4947921;28;20438;-73
2021/12/12 09:12:43;;;;;;;1999.90;999.90;;;8.00;99.90;;;;;;4948076;28;20461;-73
2021/12/12 09:15:29;;;;;;;1999.90;999.90;;;8.00;99.90;;;;;;4947458;28;20449;-73
2021/12/12 09:18:02;;;;;;;1999.90;999.90;;;8.10;99.90;;;;;;4948043;28;20472;-73
2021/12/12 09:20:45;;;;;;;1999.90;999.90;;;8.10;99.90;;;;;;4947883;28;20424;-73
2021/12/12 09:23:24;;;;;;;1999.90;999.90;;;8.10;99.90;;;;;;4948025;28;20432;-73
2021/12/12 09:25:58;;;;;;;1999.90;999.90;;;8.20;99.90;;;;;;4947426;28;20517;-73
2021/12/12 09:28:39;;;;;;;1999.90;999.90;;;8.30;99.90;;;;;;4947916;28;20464;-73
2021/12/12 09:31:09;;;;;;;1999.90;999.90;;;8.40;99.90;;;;;;4947682;29;20450;-73
2021/12/12 09:33:34;;;;;;;1999.90;999.90;;;8.50;99.90;;;;;;4948198;28;20466;-73
2021/12/12 09:36:02;;;;;;;1999.90;999.90;;;8.60;99.90;;;;;;4947248;28;21257;-73
2021/12/12 09:38:41;;;;;;;1999.90;999.90;;;8.70;99.90;;;;;;4947460;28;20254;-73
2021/12/12 09:41:23;;;;;;;1999.90;999.90;;;8.70;99.90;;;;;;4947027;28;20931;-73
2021/12/12 09:44:23;;;;;;;1999.90;999.90;;;8.90;99.90;;;;;;4946995;28;20497;-73
2021/12/12 09:53:24;;;;;;;1999.90;999.90;;;9.00;99.90;;;;;;4947435;28;20470;-73
2021/12/12 09:56:05;;;;;;;1999.90;999.90;;;9.00;99.90;;;;;;4946852;28;20407;-73
2021/12/12 09:58:44;;;;;;;1999.90;999.90;;;9.00;99.90;;;;;;4946697;28;20973;-73
2021/12/12 10:01:25;;;;;;;1999.90;999.90;;;9.10;99.90;;;;;;4946823;28;20428;-73
2021/12/12 10:04:21;;;;;;;1999.90;999.90;;;9.20;99.90;;;;;;4946810;28;20419;-74
2021/12/12 10:07:02;;;;;;;1999.90;999.90;;;9.30;99.90;;;;;;4946799;28;20422;-74
2021/12/12 10:09:53;;;;;;;1999.90;999.90;;;9.30;99.90;;;;;;4946730;29;20423;-74
2021/12/12 10:12:22;;;;;;;1999.90;999.90;;;9.40;99.90;;;;;;4947154;28;21128;-74
2021/12/12 10:14:57;;;;;;;1999.90;999.90;;;9.40;99.90;;;;;;4946413;29;20439;-74
2021/12/12 10:17:36;;;;;;;1999.90;999.90;;;9.50;99.90;;;;;;4946460;28;21138;-74
2021/12/12 10:20:24;;;;;;;1999.90;999.90;;;9.50;99.90;;;;;;4946711;28;20423;-74
2021/12/12 10:23:15;;;;;;;1999.90;999.90;;;9.50;99.90;;;;;;4947221;29;21060;-74
2021/12/12 10:26:05;;;;;;;1999.90;999.90;;;9.60;99.90;;;;;;4946468;29;20427;-74
2021/12/12 10:28:36;;;;;;;1999.90;999.90;;;9.50;99.90;;;;;;4956631;28;20423;-75
2021/12/12 10:31:18;;;;;;;1999.90;999.90;;;9.60;99.90;;;;;;4952018;28;20486;-74
2021/12/12 10:34:04;;;;;;;1999.90;999.90;;;9.70;99.90;;;;;;4946690;28;20559;-74
2021/12/12 10:36:33;;;;;;;1999.90;999.90;;;9.80;99.90;;;;;;4947209;28;20422;-74
2021/12/12 10:39:25;;;;;;;1999.90;999.90;;;9.80;99.90;;;;;;4946650;28;20418;-74
2021/12/12 10:41:58;;;;;;;1999.90;999.90;;;9.90;99.90;;;;;;4946902;28;20441;-74
2021/12/12 10:44:31;;;;;;;1999.90;999.90;;;9.80;99.90;;;;;;4946816;28;20796;-75
2021/12/12 10:47:12;;;;;;;1999.90;999.90;;;9.80;99.90;;;;;;4947031;28;20477;-73
2021/12/12 10:49:52;;;;;;;1999.90;999.90;;;9.80;99.90;;;;;;4947021;28;20940;-74
2021/12/12 10:52:33;;;;;;;1999.90;999.90;;;9.90;99.90;;;;;;4946814;28;20835;-73
2021/12/12 10:55:05;;;;;;;1999.90;999.90;;;9.90;99.90;;;;;;4946245;28;20416;-72
2021/12/12 10:57:37;;;;;;;1999.90;999.90;;;10.00;99.90;;;;;;4949563;28;20475;-72
2021/12/12 11:00:10;;;;;;;1999.90;999.90;;;9.90;99.90;;;;;;4947968;28;20437;-69
2021/12/12 11:02:44;;;;;;;1999.90;999.90;;;9.90;99.90;;;;;;4950406;28;21046;-70
2021/12/12 11:05:14;;;;;;;1999.90;999.90;;;9.90;99.90;;;;;;4949422;28;21062;-69
2021/12/12 11:07:51;;;;;;;1999.90;999.90;;;10.10;99.90;;;;;;4949417;28;20413;-69
2021/12/12 11:10:28;;;;;;;1999.90;999.90;;;10.10;99.90;;;;;;4953858;28;21134;-69
2021/12/12 11:13:16;;;;;;;1999.90;999.90;;;10.20;99.90;;;;;;4949013;28;20463;-69
2021/12/12 11:15:42;;;;;;;1999.90;999.90;;;10.20;99.90;;;;;;4949711;28;20450;-70
2021/12/12 11:18:07;;;;;;;1999.90;999.90;;;10.20;99.90;;;;;;4949219;28;21056;-70
2021/12/12 11:20:41;;;;;;;1999.90;999.90;;;10.20;99.90;;;;;;4949654;28;20205;-70
2021/12/12 11:23:34;;;;;;;1999.90;999.90;;;10.20;99.90;;;;;;4949827;28;20178;-69
2021/12/12 11:26:15;;;;;;;1999.90;999.90;;;10.20;99.90;;;;;;4949230;28;20513;-70
2021/12/12 11:28:46;;;;;;;1999.90;999.90;;;10.10;99.90;;;;;;4949388;28;20521;-70
2021/12/12 11:31:19;;;;;;;1999.90;999.90;;;10.10;99.90;;;;;;4949163;28;20529;-70
2021/12/12 11:33:48;;;;;;;1999.90;999.90;;;10.10;99.90;;;;;;4949177;28;20559;-70
2021/12/12 11:36:22;;;;;;;1999.90;999.90;;;10.10;99.90;;;;;;4949738;28;21584;-69
2021/12/12 11:38:50;;;;;;;1999.90;999.90;;;10.00;99.90;;;;;;4949827;28;20429;-70
2021/12/12 11:41:33;;;;;;;1999.90;999.90;;;10.00;99.90;;;;;;4949308;28;20472;-70
2021/12/12 11:44:07;;;;;;;1999.90;999.90;;;10.00;99.90;;;;;;4949754;28;21229;-71
2021/12/12 11:46:40;;;;;;;1999.90;999.90;;;10.00;99.90;;;;;;4949232;28;20420;-71
2021/12/12 11:49:16;;;;;;;1999.90;999.90;;;10.00;99.90;;;;;;4949174;28;20425;-71
2021/12/12 11:52:03;;;;;;;1999.90;999.90;;;10.00;99.90;;;;;;4949343;28;20473;-70
2021/12/12 11:55:05;;;;;;;1999.90;999.90;;;9.90;99.90;;;;;;4949270;28;20506;-70
2021/12/12 11:57:44;;;;;;;1999.90;999.90;;;9.90;99.90;;;;;;4948849;28;20424;-70
2021/12/12 12:00:21;;;;;;;1999.90;999.90;;;9.90;99.90;;;;;;4949233;28;20423;-70
2021/12/12 12:02:56;;;;;;;1999.90;999.90;;;9.90;99.90;;;;;;4949034;28;20421;-71
2021/12/12 12:05:34;;;;;;;1999.90;999.90;;;9.90;99.90;;;;;;4948726;28;20440;-70
2021/12/12 12:08:21;;;;;;;1999.90;999.90;;;9.90;99.90;;;;;;4948573;28;20864;-70
2021/12/12 12:11:15;;;;;;;1999.90;999.90;;;9.90;99.90;;;;;;4949403;28;20447;-72
2021/12/12 12:14:01;;;;;;;1999.90;999.90;;;9.90;99.90;;;;;;4948742;28;20502;-72
2021/12/12 12:16:52;;;;;;;1999.90;999.90;;;9.90;99.90;;;;;;4944810;28;20456;-71
2021/12/12 12:19:58;;;;;;;1999.90;999.90;;;9.80;99.90;;;;;;4947574;28;20417;-71
2021/12/12 12:22:29;;;;;;;1999.90;999.90;;;9.90;99.90;;;;;;4947728;28;20414;-72
2021/12/12 12:25:14;;;;;;;1999.90;999.90;;;9.90;99.90;;;;;;4948568;28;20428;-70
2021/12/12 12:27:46;;;;;;;1999.90;999.90;;;10.00;99.90;;;;;;4948099;28;20437;-71
2021/12/12 12:30:30;;;;;;;1999.90;999.90;;;10.00;99.90;;;;;;4948163;28;20872;-70
2021/12/12 12:33:24;;;;;;;1999.90;999.90;;;10.00;99.90;;;;;;4948396;28;21001;-71
2021/12/12 12:36:18;;;;;;;1999.90;999.90;;;9.90;99.90;;;;;;4948238;28;20425;-70
2021/12/12 12:39:06;;;;;;;1999.90;999.90;;;9.90;99.90;;;;;;4947775;28;20413;-72
2021/12/12 12:42:05;;;;;;;1999.90;999.90;;;10.00;99.90;;;;;;4948286;28;20513;-71
2021/12/12 12:45:08;;;;;;;1999.90;999.90;;;10.00;99.90;;;;;;4947160;28;20531;-70
2021/12/12 12:48:01;;;;;;;1999.90;999.90;;;10.00;99.90;;;;;;4948173;28;20418;-72
2021/12/12 12:50:36;;;;;;;1999.90;999.90;;;10.00;99.90;;;;;;4948097;28;20424;-69
2021/12/12 12:53:19;;;;;;;1999.90;999.90;;;10.00;99.90;;;;;;4947330;28;20459;-70
2021/12/12 12:56:07;;;;;;;1999.90;999.90;;;10.10;99.90;;;;;;4948242;28;20425;-70
2021/12/12 12:58:51;;;;;;;1999.90;999.90;;;10.20;99.90;;;;;;4948222;28;20496;-71